TIL weather

Cheadle Airport
Cheadle, Alberta, Canada

Public forecast

Using degrees Celsius for public forecast. Weather courtesy of forecast.io.

METAR (pilot weather report)

Closest report is Calgary International Airport, 15.3 nm (28.4 km) WNW. Retrieved 2019/06/20 23:00 UTC (30 minutes ago):

CYYC 202300Z 01020KT 15SM BKN020 OVC230 11/04 A2978 RMK SC5CI3 SLP103 DENSITY ALT 4200FT

TAF (pilot weather forecast)

Closest forecast is Calgary International Airport, 15.3 nm (28.4 km) WNW. Retrieved 2019/06/20 21:42 UTC (2 hours ago):

TAF TAF CYYC 202038Z 2021/2118 35015G25KT P6SM SCT015 BKN030 TEMPO 2021/2103 5SM -SHRA BR BKN015 OVC030 FM210300 34012KT P6SM OVC030 TEMPO 2103/2109 3SM -RA BR OVC012 FM210900 34012KT P6SM -RA OVC012 TEMPO 2109/2118 2SM -RA BR SCT004 OVC008 BECMG 2111/2113 01020G30KT RMK NXT FCST BY 210000Z